Time;durP1;ratioP1;P1;durP2;ratioP2;P2;SDS_P1;SDS_P2;PMS_P1;PMS_P2;Temp;Humidity;BMP_temperature;BMP_pressure;BME280_temperature;BME280_humidity;BME280_pressure;Samples;Min_cycle;Max_cycle;Signal;HPM_P1;HPM_P2
2023/11/21 00:01:09;;;;;;;5.65;1.38;;;;;;;;;;5028345;28;20109;-75
2023/11/21 00:03:35;;;;;;;6.40;1.42;;;;;;;;;;5023703;28;20460;-75
2023/11/21 00:06:00;;;;;;;5.88;1.80;;;;;;;;;;5024450;28;20057;-75
2023/11/21 00:08:26;;;;;;;4.43;1.63;;;;;;;;;;5020846;28;20029;-75
2023/11/21 00:10:51;;;;;;;8.63;1.98;;;;;;;;;;5024587;28;20037;-75
2023/11/21 00:13:16;;;;;;;6.50;1.88;;;;;;;;;;5028513;28;20033;-75
2023/11/21 00:15:41;;;;;;;5.60;2.10;;;;;;;;;;5024871;28;20402;-75
2023/11/21 00:18:07;;;;;;;6.78;1.73;;;;;;;;;;5029626;28;20030;-75
2023/11/21 00:20:32;;;;;;;6.50;1.92;;;;;;;;;;5024431;28;20025;-75
2023/11/21 00:22:57;;;;;;;3.13;1.30;;;;;;;;;;5023006;28;20086;-75
2023/11/21 00:25:22;;;;;;;3.80;1.73;;;;;;;;;;5029374;28;20040;-75
2023/11/21 00:27:48;;;;;;;5.82;1.35;;;;;;;;;;5026475;28;20486;-75
2023/11/21 00:30:13;;;;;;;4.40;1.70;;;;;;;;;;5026650;28;20083;-75
2023/11/21 00:32:39;;;;;;;5.55;1.40;;;;;;;;;;5024471;28;20035;-75
2023/11/21 00:35:05;;;;;;;5.38;1.50;;;;;;;;;;5026960;28;20033;-75
2023/11/21 00:37:31;;;;;;;3.75;1.70;;;;;;;;;;5026382;28;20041;-74
2023/11/21 00:39:57;;;;;;;8.60;2.03;;;;;;;;;;5035514;28;20057;-75
2023/11/21 00:42:22;;;;;;;7.25;1.55;;;;;;;;;;5034871;28;20022;-74
2023/11/21 00:44:47;;;;;;;4.03;1.30;;;;;;;;;;5031133;28;20583;-74
2023/11/21 00:47:13;;;;;;;6.53;1.45;;;;;;;;;;5038051;28;20053;-74
2023/11/21 00:49:39;;;;;;;5.13;1.63;;;;;;;;;;5027202;28;20482;-74
2023/11/21 00:52:04;;;;;;;6.85;1.77;;;;;;;;;;5029359;28;20025;-74
2023/11/21 00:54:30;;;;;;;4.70;1.42;;;;;;;;;;5028709;28;20026;-74
2023/11/21 00:56:55;;;;;;;7.30;1.98;;;;;;;;;;5027691;28;20040;-74
2023/11/21 00:59:22;;;;;;;5.00;1.90;;;;;;;;;;5024974;28;20048;-74
2023/11/21 01:01:48;;;;;;;8.18;2.28;;;;;;;;;;5021899;28;20038;-74
2023/11/21 01:04:13;;;;;;;8.15;1.73;;;;;;;;;;5023140;28;20013;-74
2023/11/21 01:06:38;;;;;;;4.22;1.40;;;;;;;;;;5027978;28;20029;-74
2023/11/21 01:09:07;;;;;;;4.43;1.83;;;;;;;;;;5028007;28;20681;-74
2023/11/21 01:11:35;;;;;;;5.82;1.80;;;;;;;;;;5036627;28;20042;-74
2023/11/21 01:14:01;;;;;;;9.35;1.83;;;;;;;;;;5024643;28;20517;-74
2023/11/21 01:16:27;;;;;;;6.53;1.85;;;;;;;;;;5023330;28;20029;-74
2023/11/21 01:18:52;;;;;;;4.35;1.52;;;;;;;;;;5026012;28;20022;-74
2023/11/21 01:21:18;;;;;;;5.03;1.80;;;;;;;;;;5028805;28;20034;-74
2023/11/21 01:23:43;;;;;;;4.40;1.52;;;;;;;;;;5025652;28;20096;-74
2023/11/21 01:26:08;;;;;;;5.95;1.50;;;;;;;;;;5028731;28;20034;-74
2023/11/21 01:28:35;;;;;;;5.22;1.80;;;;;;;;;;5021834;28;20072;-73
2023/11/21 01:31:00;;;;;;;4.28;1.90;;;;;;;;;;5022617;28;20045;-74
2023/11/21 01:33:25;;;;;;;6.55;2.20;;;;;;;;;;5028630;28;20021;-74
2023/11/21 01:35:53;;;;;;;4.72;1.98;;;;;;;;;;5031115;28;20497;-75
2023/11/21 01:38:18;;;;;;;5.88;1.95;;;;;;;;;;5030483;28;20037;-74
2023/11/21 01:40:43;;;;;;;4.53;2.13;;;;;;;;;;5026423;28;19940;-75
2023/11/21 01:43:08;;;;;;;5.60;2.10;;;;;;;;;;5027180;28;20026;-75
2023/11/21 01:45:34;;;;;;;3.55;1.55;;;;;;;;;;5025829;28;20053;-75
2023/11/21 01:48:00;;;;;;;4.85;2.22;;;;;;;;;;5032002;28;20504;-75
2023/11/21 01:50:25;;;;;;;5.80;1.90;;;;;;;;;;5031346;28;20065;-75
2023/11/21 01:52:51;;;;;;;4.35;2.00;;;;;;;;;;5030970;28;20064;-75
2023/11/21 01:55:20;;;;;;;5.43;1.85;;;;;;;;;;5026626;28;20033;-74
2023/11/21 01:57:46;;;;;;;6.65;2.15;;;;;;;;;;5037812;28;20053;-74
2023/11/21 02:00:19;;;;;;;6.20;1.90;;;;;;;;;;5032016;28;20083;-74
2023/11/21 02:02:48;;;;;;;5.80;2.10;;;;;;;;;;5030951;28;20022;-74
2023/11/21 02:05:14;;;;;;;6.50;1.90;;;;;;;;;;5039191;28;20029;-74
2023/11/21 02:07:40;;;;;;;6.30;2.28;;;;;;;;;;5039775;28;20018;-74
2023/11/21 02:10:06;;;;;;;5.35;2.13;;;;;;;;;;5028378;28;20048;-74
2023/11/21 02:12:31;;;;;;;7.47;2.00;;;;;;;;;;5026208;28;20032;-74
2023/11/21 02:14:56;;;;;;;6.43;2.30;;;;;;;;;;5034823;28;20037;-75
2023/11/21 02:17:21;;;;;;;5.78;2.03;;;;;;;;;;5031596;28;20021;-75
2023/11/21 02:19:51;;;;;;;5.60;2.00;;;;;;;;;;5035336;28;20038;-75
2023/11/21 02:22:17;;;;;;;5.05;2.25;;;;;;;;;;5028001;28;20103;-75
2023/11/21 02:24:42;;;;;;;7.53;2.67;;;;;;;;;;5026156;28;20025;-75
2023/11/21 02:27:07;;;;;;;3.85;2.10;;;;;;;;;;5031212;28;20025;-75
2023/11/21 02:29:33;;;;;;;6.90;2.38;;;;;;;;;;5040437;28;20029;-75
2023/11/21 02:31:59;;;;;;;5.57;2.15;;;;;;;;;;5036760;28;20041;-75
2023/11/21 02:34:25;;;;;;;5.30;2.55;;;;;;;;;;5028888;28;20040;-74
2023/11/21 02:36:50;;;;;;;4.35;2.20;;;;;;;;;;5030948;28;20037;-75
2023/11/21 02:39:22;;;;;;;8.45;2.20;;;;;;;;;;5030994;28;20030;-75
2023/11/21 02:41:47;;;;;;;7.15;3.03;;;;;;;;;;5029326;28;20038;-75
2023/11/21 02:44:12;;;;;;;5.28;2.17;;;;;;;;;;5030090;28;20033;-75
2023/11/21 02:46:39;;;;;;;4.90;2.30;;;;;;;;;;5030809;28;20121;-75
2023/11/21 02:49:10;;;;;;;6.75;2.58;;;;;;;;;;5024332;28;20025;-74
2023/11/21 02:51:35;;;;;;;5.63;2.25;;;;;;;;;;5024655;28;20033;-75
2023/11/21 02:54:02;;;;;;;5.50;2.35;;;;;;;;;;5024815;28;20079;-75
2023/11/21 02:56:28;;;;;;;5.03;2.33;;;;;;;;;;5026506;28;20048;-75
2023/11/21 02:58:55;;;;;;;6.35;2.88;;;;;;;;;;5029733;28;20040;-75
2023/11/21 03:01:20;;;;;;;6.28;2.53;;;;;;;;;;5029095;28;20028;-75
2023/11/21 03:03:47;;;;;;;5.88;2.42;;;;;;;;;;5025626;28;20018;-74
2023/11/21 03:06:12;;;;;;;4.55;2.45;;;;;;;;;;5025905;28;20028;-75
2023/11/21 03:08:38;;;;;;;5.10;2.42;;;;;;;;;;5027545;28;20030;-75
2023/11/21 03:11:03;;;;;;;6.60;2.70;;;;;;;;;;5026737;28;20025;-75
2023/11/21 03:13:28;;;;;;;6.20;2.50;;;;;;;;;;5029822;28;20029;-75
2023/11/21 03:15:54;;;;;;;8.27;3.10;;;;;;;;;;5026530;28;20064;-75
2023/11/21 03:18:21;;;;;;;8.40;2.78;;;;;;;;;;5029067;28;20022;-75
2023/11/21 03:20:47;;;;;;;4.13;1.95;;;;;;;;;;5022765;28;20150;-75
2023/11/21 03:23:12;;;;;;;5.25;2.50;;;;;;;;;;5027605;28;20130;-75
2023/11/21 03:25:37;;;;;;;4.80;2.45;;;;;;;;;;5029535;28;20452;-75
2023/11/21 03:28:03;;;;;;;4.85;2.67;;;;;;;;;;5028348;28;20025;-75
2023/11/21 03:30:28;;;;;;;6.30;2.83;;;;;;;;;;5027110;28;20541;-75
2023/11/21 03:32:53;;;;;;;8.55;2.92;;;;;;;;;;5024524;28;20622;-75
2023/11/21 03:35:20;;;;;;;5.07;2.50;;;;;;;;;;5029057;28;20083;-75
2023/11/21 03:37:46;;;;;;;6.25;2.70;;;;;;;;;;5028320;28;20029;-75
2023/11/21 03:40:12;;;;;;;6.25;2.78;;;;;;;;;;5025839;28;20025;-75
2023/11/21 03:42:37;;;;;;;9.02;3.17;;;;;;;;;;5027260;28;20028;-75
2023/11/21 03:45:03;;;;;;;7.20;3.13;;;;;;;;;;5028230;28;20389;-75
2023/11/21 03:47:29;;;;;;;6.07;2.72;;;;;;;;;;5026985;28;20025;-75
2023/11/21 03:49:54;;;;;;;9.98;3.03;;;;;;;;;;5022518;28;20132;-75
2023/11/21 03:52:19;;;;;;;6.05;3.15;;;;;;;;;;5026943;28;20032;-75
2023/11/21 03:54:44;;;;;;;9.10;4.00;;;;;;;;;;5028417;28;20037;-75
2023/11/21 03:57:10;;;;;;;7.43;2.95;;;;;;;;;;5029722;28;20021;-75
2023/11/21 03:59:35;;;;;;;6.68;3.15;;;;;;;;;;5024734;28;20084;-75
2023/11/21 04:02:01;;;;;;;8.27;4.13;;;;;;;;;;5024277;28;20029;-75
2023/11/21 04:04:26;;;;;;;8.00;3.28;;;;;;;;;;5021795;28;20044;-75
2023/11/21 04:06:54;;;;;;;5.53;3.65;;;;;;;;;;5027837;28;20033;-75
2023/11/21 04:09:19;;;;;;;5.57;3.17;;;;;;;;;;5026153;28;20055;-74
2023/11/21 04:11:45;;;;;;;6.40;2.83;;;;;;;;;;5024054;28;20034;-75
2023/11/21 04:14:10;;;;;;;11.63;3.97;;;;;;;;;;5029853;28;20030;-75
2023/11/21 04:16:35;;;;;;;10.65;3.42;;;;;;;;;;5024560;28;20038;-75
2023/11/21 04:19:01;;;;;;;8.50;2.95;;;;;;;;;;5023057;28;20037;-75
2023/11/21 04:21:26;;;;;;;10.07;3.70;;;;;;;;;;5029847;28;20037;-75
2023/11/21 04:23:51;;;;;;;6.85;3.50;;;;;;;;;;5027491;28;20022;-76
2023/11/21 04:26:16;;;;;;;14.45;4.00;;;;;;;;;;5026613;28;20508;-76
2023/11/21 04:28:42;;;;;;;9.23;3.67;;;;;;;;;;5025079;28;20054;-75
2023/11/21 04:31:07;;;;;;;9.82;3.85;;;;;;;;;;5029333;28;20116;-75
2023/11/21 04:33:32;;;;;;;9.45;3.90;;;;;;;;;;5022992;28;20017;-75
2023/11/21 04:35:57;;;;;;;8.23;3.35;;;;;;;;;;5028337;28;20034;-76
2023/11/21 04:38:22;;;;;;;9.65;3.50;;;;;;;;;;5027143;28;20026;-75
2023/11/21 04:40:48;;;;;;;9.50;3.83;;;;;;;;;;5021830;28;20045;-75
2023/11/21 04:43:13;;;;;;;7.72;3.80;;;;;;;;;;5024967;28;20036;-75
2023/11/21 04:45:38;;;;;;;7.30;3.38;;;;;;;;;;5020044;28;20030;-75
2023/11/21 04:48:03;;;;;;;11.68;4.28;;;;;;;;;;5029382;28;20509;-75
2023/11/21 04:50:29;;;;;;;11.57;4.32;;;;;;;;;;5029373;28;20035;-75
2023/11/21 04:52:54;;;;;;;8.65;3.83;;;;;;;;;;5027050;28;20044;-76
2023/11/21 04:55:19;;;;;;;10.90;3.83;;;;;;;;;;5026227;28;20105;-78
2023/11/21 04:57:45;;;;;;;8.15;3.97;;;;;;;;;;5024225;28;20034;-76
2023/11/21 05:00:10;;;;;;;8.48;3.40;;;;;;;;;;5022999;28;20080;-76
2023/11/21 05:02:38;;;;;;;11.27;4.47;;;;;;;;;;5026082;28;20046;-76
2023/11/21 05:05:05;;;;;;;12.27;3.78;;;;;;;;;;5028128;28;20022;-76
2023/11/21 05:07:30;;;;;;;10.82;4.03;;;;;;;;;;5029727;28;20052;-76
2023/11/21 05:09:56;;;;;;;11.43;4.50;;;;;;;;;;5030075;28;20065;-76
2023/11/21 05:12:22;;;;;;;10.60;4.10;;;;;;;;;;5027413;28;20080;-76
2023/11/21 05:14:48;;;;;;;12.35;4.20;;;;;;;;;;5029088;28;20048;-78
2023/11/21 05:17:14;;;;;;;10.45;4.15;;;;;;;;;;5032726;28;20033;-75
2023/11/21 05:19:40;;;;;;;15.05;5.03;;;;;;;;;;5032855;28;20476;-75
2023/11/21 05:22:05;;;;;;;8.98;4.38;;;;;;;;;;5033465;28;20033;-75
2023/11/21 05:24:31;;;;;;;8.15;3.70;;;;;;;;;;5033636;28;20030;-75
2023/11/21 05:26:56;;;;;;;11.57;5.10;;;;;;;;;;5033077;28;20034;-75
2023/11/21 05:29:22;;;;;;;10.10;4.90;;;;;;;;;;5033006;28;20041;-75
2023/11/21 05:31:47;;;;;;;11.30;5.38;;;;;;;;;;5030959;28;20037;-76
2023/11/21 05:34:12;;;;;;;11.48;5.13;;;;;;;;;;5030024;28;20043;-75
2023/11/21 05:36:37;;;;;;;11.57;4.82;;;;;;;;;;5021876;28;20030;-75
2023/11/21 05:39:04;;;;;;;11.18;5.25;;;;;;;;;;5027546;28;20025;-75
2023/11/21 05:41:29;;;;;;;12.20;4.78;;;;;;;;;;5024502;28;20029;-75
2023/11/21 05:43:54;;;;;;;15.35;6.75;;;;;;;;;;5029857;28;20084;-76
2023/11/21 05:46:19;;;;;;;10.48;4.63;;;;;;;;;;5031196;28;20087;-75
2023/11/21 05:48:45;;;;;;;10.95;5.35;;;;;;;;;;5027920;28;20474;-75
2023/11/21 05:51:12;;;;;;;11.52;5.50;;;;;;;;;;5030595;28;20516;-76
2023/11/21 05:53:37;;;;;;;11.95;4.40;;;;;;;;;;5025416;28;20061;-75
2023/11/21 05:56:03;;;;;;;11.48;4.75;;;;;;;;;;5026361;28;20446;-75
2023/11/21 05:58:29;;;;;;;11.45;5.03;;;;;;;;;;5032354;28;20049;-75
2023/11/21 06:00:54;;;;;;;10.57;4.50;;;;;;;;;;5030433;28;20076;-75
2023/11/21 06:03:19;;;;;;;13.02;5.70;;;;;;;;;;5029802;28;20078;-76
2023/11/21 06:05:44;;;;;;;10.13;4.53;;;;;;;;;;5027055;28;20107;-75
2023/11/21 06:08:10;;;;;;;13.00;5.10;;;;;;;;;;5028733;28;20029;-75
2023/11/21 06:10:35;;;;;;;11.57;5.45;;;;;;;;;;5024245;28;20025;-75
2023/11/21 06:13:00;;;;;;;13.20;5.65;;;;;;;;;;5031013;28;20026;-74
2023/11/21 06:15:26;;;;;;;11.13;5.70;;;;;;;;;;5030229;28;20442;-75
2023/11/21 06:17:54;;;;;;;13.40;5.22;;;;;;;;;;5028860;28;20148;-74
2023/11/21 06:20:19;;;;;;;14.55;5.40;;;;;;;;;;5027367;28;20573;-75
2023/11/21 06:22:45;;;;;;;11.77;4.80;;;;;;;;;;5025869;28;20100;-75
2023/11/21 06:25:12;;;;;;;13.68;5.95;;;;;;;;;;5030201;28;20409;-74
2023/11/21 06:27:38;;;;;;;11.68;5.10;;;;;;;;;;5029385;28;20034;-75
2023/11/21 06:30:04;;;;;;;10.98;5.30;;;;;;;;;;5030383;28;20041;-76
2023/11/21 06:32:29;;;;;;;11.57;5.35;;;;;;;;;;5025239;28;20030;-74
2023/11/21 06:34:55;;;;;;;9.93;5.45;;;;;;;;;;5026183;28;20076;-75
2023/11/21 06:37:23;;;;;;;10.50;5.60;;;;;;;;;;5027237;28;20500;-75
2023/11/21 06:39:49;;;;;;;13.05;5.40;;;;;;;;;;5024762;28;20042;-75
2023/11/21 06:42:15;;;;;;;14.38;6.45;;;;;;;;;;5030362;28;20132;-76
2023/11/21 06:44:41;;;;;;;12.45;6.22;;;;;;;;;;5027352;28;20021;-75
2023/11/21 06:47:06;;;;;;;12.90;5.43;;;;;;;;;;5029183;28;20067;-75
2023/11/21 06:49:32;;;;;;;10.88;4.85;;;;;;;;;;5024331;28;20049;-75
2023/11/21 06:51:57;;;;;;;13.50;7.35;;;;;;;;;;5022927;28;20033;-75
2023/11/21 06:54:22;;;;;;;17.48;7.45;;;;;;;;;;5031307;28;20379;-76
2023/11/21 06:56:47;;;;;;;15.00;7.10;;;;;;;;;;5029691;28;20082;-75
2023/11/21 06:59:13;;;;;;;16.00;7.32;;;;;;;;;;5028224;28;20548;-75
2023/11/21 07:01:41;;;;;;;16.92;8.27;;;;;;;;;;5024804;28;20044;-75
2023/11/21 07:04:06;;;;;;;15.50;7.05;;;;;;;;;;5024910;28;20029;-75
2023/11/21 07:06:32;;;;;;;19.63;9.13;;;;;;;;;;5037853;28;20030;-75
2023/11/21 07:08:58;;;;;;;16.00;8.55;;;;;;;;;;5029796;28;20049;-75
2023/11/21 07:11:23;;;;;;;17.50;8.60;;;;;;;;;;5025377;28;20025;-75
2023/11/21 07:13:48;;;;;;;19.10;8.15;;;;;;;;;;5025178;28;20510;-75
2023/11/21 07:16:15;;;;;;;13.80;6.88;;;;;;;;;;5026010;28;20038;-75
2023/11/21 07:18:40;;;;;;;8.18;4.00;;;;;;;;;;5023894;28;20025;-75
2023/11/21 07:21:06;;;;;;;6.82;3.60;;;;;;;;;;5030614;28;20033;-74
2023/11/21 07:23:31;;;;;;;5.65;2.78;;;;;;;;;;5028729;28;20040;-75
2023/11/21 07:25:56;;;;;;;4.40;2.40;;;;;;;;;;5024529;28;20034;-75
2023/11/21 07:28:21;;;;;;;4.75;2.45;;;;;;;;;;5028383;28;20396;-75
2023/11/21 07:30:46;;;;;;;4.43;2.30;;;;;;;;;;5024347;28;20038;-75
2023/11/21 07:33:12;;;;;;;3.28;1.73;;;;;;;;;;5024150;28;20039;-74
2023/11/21 07:35:37;;;;;;;3.42;2.05;;;;;;;;;;5030740;28;20030;-75
2023/11/21 07:38:03;;;;;;;3.38;1.30;;;;;;;;;;5029146;28;20411;-75
2023/11/21 07:40:28;;;;;;;4.00;1.98;;;;;;;;;;5021588;28;20038;-74
2023/11/21 07:42:57;;;;;;;4.72;2.80;;;;;;;;;;5022938;28;20034;-75
2023/11/21 07:45:22;;;;;;;5.20;2.47;;;;;;;;;;5024092;28;20075;-74
2023/11/21 07:47:47;;;;;;;4.20;2.63;;;;;;;;;;5027141;28;20112;-75
2023/11/21 07:50:13;;;;;;;4.57;2.60;;;;;;;;;;5026622;28;20100;-75
2023/11/21 07:52:39;;;;;;;4.85;2.80;;;;;;;;;;5028500;28;20478;-75
2023/11/21 07:55:05;;;;;;;7.80;4.97;;;;;;;;;;5029348;28;20037;-75
2023/11/21 07:57:30;;;;;;;6.07;3.80;;;;;;;;;;5028065;28;20033;-74
2023/11/21 07:59:56;;;;;;;5.40;3.28;;;;;;;;;;5024638;28;20084;-75
2023/11/21 08:02:21;;;;;;;7.13;3.83;;;;;;;;;;5030660;28;20025;-75
2023/11/21 08:04:49;;;;;;;9.23;4.25;;;;;;;;;;5028367;28;20036;-74
2023/11/21 08:07:14;;;;;;;8.15;4.30;;;;;;;;;;5025544;28;20033;-75
2023/11/21 08:09:39;;;;;;;8.20;4.97;;;;;;;;;;5022742;28;20038;-74
2023/11/21 08:12:05;;;;;;;8.75;5.47;;;;;;;;;;5024137;28;20108;-74
2023/11/21 08:14:30;;;;;;;8.32;4.78;;;;;;;;;;5021955;28;20041;-75
2023/11/21 08:16:57;;;;;;;8.52;5.30;;;;;;;;;;5028206;28;20033;-75
2023/11/21 08:19:24;;;;;;;8.35;5.00;;;;;;;;;;5028849;28;20040;-74
2023/11/21 08:21:50;;;;;;;8.98;5.68;;;;;;;;;;5025569;28;20068;-76
2023/11/21 08:24:27;;;;;;;10.90;7.53;;;;;;;;;;5025958;28;20049;-78
2023/11/21 08:26:54;;;;;;;12.38;6.75;;;;;;;;;;5028691;28;20026;-74
2023/11/21 08:29:19;;;;;;;12.40;6.80;;;;;;;;;;5023235;28;20036;-75
2023/11/21 08:31:46;;;;;;;12.52;6.75;;;;;;;;;;5029819;28;20111;-75
2023/11/21 08:34:11;;;;;;;9.40;5.60;;;;;;;;;;5021413;28;20022;-75
2023/11/21 08:36:41;;;;;;;11.40;5.25;;;;;;;;;;5025654;28;20374;-75
2023/11/21 08:39:06;;;;;;;8.82;5.13;;;;;;;;;;5025011;28;20029;-75
2023/11/21 08:41:31;;;;;;;8.15;5.30;;;;;;;;;;5024221;28;20036;-75
2023/11/21 08:43:58;;;;;;;8.30;4.45;;;;;;;;;;5032113;28;20095;-75
2023/11/21 08:46:25;;;;;;;10.68;4.75;;;;;;;;;;5032827;28;20103;-75
2023/11/21 08:48:52;;;;;;;10.23;4.88;;;;;;;;;;5031156;28;20032;-74
2023/11/21 08:51:17;;;;;;;7.10;4.15;;;;;;;;;;5033450;28;20044;-75
2023/11/21 08:53:43;;;;;;;8.73;5.07;;;;;;;;;;5029043;28;20026;-74
2023/11/21 08:56:12;;;;;;;8.32;4.07;;;;;;;;;;5028248;28;20036;-73
2023/11/21 08:58:37;;;;;;;8.30;4.20;;;;;;;;;;5029424;28;20028;-75
2023/11/21 09:01:03;;;;;;;6.25;3.85;;;;;;;;;;5032190;28;20022;-75
2023/11/21 09:03:28;;;;;;;6.60;3.90;;;;;;;;;;5031051;28;20400;-75
2023/11/21 09:05:53;;;;;;;8.15;4.47;;;;;;;;;;5026926;28;20030;-75
2023/11/21 09:08:18;;;;;;;8.20;4.47;;;;;;;;;;5029024;28;20413;-75
2023/11/21 09:10:47;;;;;;;8.10;4.43;;;;;;;;;;5023393;28;20025;-75
2023/11/21 09:13:12;;;;;;;7.95;4.50;;;;;;;;;;5029267;28;20095;-76
2023/11/21 09:15:37;;;;;;;6.68;4.35;;;;;;;;;;5031420;28;20038;-75
2023/11/21 09:18:03;;;;;;;6.22;3.78;;;;;;;;;;5029577;28;20034;-75
2023/11/21 09:20:28;;;;;;;7.85;4.40;;;;;;;;;;5028571;28;20052;-75
2023/11/21 09:22:55;;;;;;;7.50;4.25;;;;;;;;;;5024665;28;20022;-74
2023/11/21 09:25:21;;;;;;;6.18;3.85;;;;;;;;;;5031062;28;20051;-75
2023/11/21 09:27:46;;;;;;;6.60;3.97;;;;;;;;;;5024465;28;20026;-76
2023/11/21 09:30:14;;;;;;;6.32;4.35;;;;;;;;;;5024945;28;20029;-76
2023/11/21 09:32:40;;;;;;;8.57;4.43;;;;;;;;;;5026795;28;20032;-75
2023/11/21 09:35:07;;;;;;;6.47;3.30;;;;;;;;;;5027886;28;20502;-74
2023/11/21 09:37:33;;;;;;;7.00;3.42;;;;;;;;;;5023449;28;20585;-75
2023/11/21 09:39:58;;;;;;;5.55;3.33;;;;;;;;;;5021608;28;20061;-76
2023/11/21 09:42:30;;;;;;;9.88;4.75;;;;;;;;;;5030195;28;20031;-74
2023/11/21 09:45:04;;;;;;;6.33;4.00;;;;;;;;;;5028319;28;20076;-75
2023/11/21 09:47:29;;;;;;;5.78;3.38;;;;;;;;;;5023856;28;20036;-76
2023/11/21 09:49:56;;;;;;;6.05;4.10;;;;;;;;;;5025835;28;20033;-76
2023/11/21 09:52:26;;;;;;;6.78;3.97;;;;;;;;;;5023630;28;20105;-75
2023/11/21 09:54:53;;;;;;;6.57;3.67;;;;;;;;;;5027327;28;20120;-75
2023/11/21 09:57:19;;;;;;;7.03;3.53;;;;;;;;;;5029226;28;20037;-75
2023/11/21 09:59:45;;;;;;;7.85;3.83;;;;;;;;;;5026008;28;20032;-75
2023/11/21 10:02:13;;;;;;;6.32;3.63;;;;;;;;;;5029798;28;20108;-74
2023/11/21 10:04:38;;;;;;;5.95;3.50;;;;;;;;;;5037405;28;20040;-75
2023/11/21 10:07:08;;;;;;;6.18;4.05;;;;;;;;;;5031211;28;20021;-75
2023/11/21 10:09:34;;;;;;;5.90;3.47;;;;;;;;;;5030000;28;20597;-78
2023/11/21 10:12:00;;;;;;;5.88;3.50;;;;;;;;;;5030542;28;20104;-77
2023/11/21 10:14:28;;;;;;;5.95;3.50;;;;;;;;;;5030407;28;20056;-78
2023/11/21 10:16:54;;;;;;;4.88;3.17;;;;;;;;;;5026054;28;20065;-77
2023/11/21 10:19:21;;;;;;;7.05;3.67;;;;;;;;;;5027196;28;20060;-77
2023/11/21 10:21:46;;;;;;;6.07;3.72;;;;;;;;;;5029581;28;20029;-74
2023/11/21 10:24:12;;;;;;;5.72;3.50;;;;;;;;;;5030535;28;20082;-73
2023/11/21 10:26:38;;;;;;;6.65;3.85;;;;;;;;;;5026460;28;20075;-75
2023/11/21 10:29:03;;;;;;;5.78;3.42;;;;;;;;;;5029374;28;20064;-75
2023/11/21 10:31:29;;;;;;;7.88;4.18;;;;;;;;;;5025980;28;20164;-75
2023/11/21 10:33:58;;;;;;;7.75;4.68;;;;;;;;;;5023449;28;20030;-75
2023/11/21 10:36:29;;;;;;;9.50;4.85;;;;;;;;;;5031860;28;20167;-75
2023/11/21 10:38:54;;;;;;;7.25;4.20;;;;;;;;;;5040216;28;20030;-75
2023/11/21 10:41:20;;;;;;;9.40;5.38;;;;;;;;;;5025022;28;20485;-75
2023/11/21 10:43:45;;;;;;;7.50;4.80;;;;;;;;;;5025169;28;20033;-75
2023/11/21 10:46:11;;;;;;;7.13;4.30;;;;;;;;;;5025002;28;20033;-75
2023/11/21 10:48:37;;;;;;;6.70;4.80;;;;;;;;;;5032312;28;20472;-75
2023/11/21 10:51:07;;;;;;;7.18;4.88;;;;;;;;;;5026660;28;20048;-75
2023/11/21 10:53:33;;;;;;;7.15;4.78;;;;;;;;;;5040991;28;20109;-75
2023/11/21 10:56:05;;;;;;;8.38;5.65;;;;;;;;;;5026151;28;20489;-75
2023/11/21 10:58:32;;;;;;;9.00;5.00;;;;;;;;;;5025293;28;20486;-75
2023/11/21 11:00:58;;;;;;;6.85;4.50;;;;;;;;;;5022656;28;20030;-75
2023/11/21 11:03:23;;;;;;;8.23;5.15;;;;;;;;;;5028425;28;20565;-76
2023/11/21 11:05:51;;;;;;;7.07;4.70;;;;;;;;;;5028454;28;20383;-76
2023/11/21 11:08:18;;;;;;;8.43;4.78;;;;;;;;;;5026278;28;20034;-76
2023/11/21 11:10:46;;;;;;;7.85;5.07;;;;;;;;;;5028770;28;20108;-75
2023/11/21 11:13:14;;;;;;;9.27;4.30;;;;;;;;;;5025464;28;20047;-75
2023/11/21 11:15:40;;;;;;;7.97;4.97;;;;;;;;;;5021620;28;20026;-74
2023/11/21 11:18:14;;;;;;;6.97;4.75;;;;;;;;;;5026838;28;20038;-75
2023/11/21 11:21:00;;;;;;;8.57;4.63;;;;;;;;;;5037341;28;20049;-76
2023/11/21 11:23:43;;;;;;;7.78;5.00;;;;;;;;;;5013986;28;20111;-76
2023/11/21 11:26:34;;;;;;;8.00;5.85;;;;;;;;;;4997426;28;20479;-75
2023/11/21 11:29:13;;;;;;;9.40;5.57;;;;;;;;;;4989011;28;20038;-75
2023/11/21 11:31:57;;;;;;;9.27;5.85;;;;;;;;;;4984984;28;20031;-76
2023/11/21 11:34:25;;;;;;;8.50;5.07;;;;;;;;;;4991267;28;20083;-75
2023/11/21 11:37:00;;;;;;;8.75;5.60;;;;;;;;;;4984384;28;20030;-76
2023/11/21 11:39:35;;;;;;;11.27;5.85;;;;;;;;;;4988280;28;20128;-75
2023/11/21 11:42:04;;;;;;;9.00;5.10;;;;;;;;;;4976883;28;20040;-76
2023/11/21 11:44:45;;;;;;;8.32;5.32;;;;;;;;;;4980753;28;20399;-77
2023/11/21 11:47:33;;;;;;;8.18;5.22;;;;;;;;;;4990332;28;20038;-77
2023/11/21 11:50:21;;;;;;;8.90;5.45;;;;;;;;;;4987964;28;20026;-77
2023/11/21 11:52:47;;;;;;;9.25;4.88;;;;;;;;;;4981115;28;20440;-77
2023/11/21 11:55:13;;;;;;;9.18;5.32;;;;;;;;;;4979318;28;20039;-77
2023/11/21 11:58:15;;;;;;;10.30;5.68;;;;;;;;;;4999755;28;20068;-76
2023/11/21 12:00:41;;;;;;;9.68;5.10;;;;;;;;;;4964332;28;20553;-77
2023/11/21 12:03:07;;;;;;;10.63;5.68;;;;;;;;;;4981331;28;20072;-77
2023/11/21 12:05:35;;;;;;;9.23;5.63;;;;;;;;;;4980903;28;20406;-77
2023/11/21 12:08:03;;;;;;;10.40;5.50;;;;;;;;;;5002912;28;20022;-77
2023/11/21 12:10:29;;;;;;;10.30;5.60;;;;;;;;;;4977522;28;20041;-77
2023/11/21 12:12:55;;;;;;;11.18;6.03;;;;;;;;;;4987705;28;20050;-77
2023/11/21 12:15:21;;;;;;;9.18;5.30;;;;;;;;;;4983235;28;20115;-77
2023/11/21 12:17:46;;;;;;;13.73;6.55;;;;;;;;;;4983590;28;20039;-77
2023/11/21 12:20:17;;;;;;;10.13;5.35;;;;;;;;;;5002284;28;20044;-77
2023/11/21 12:22:47;;;;;;;10.20;5.53;;;;;;;;;;4989943;28;20525;-77
2023/11/21 12:25:15;;;;;;;12.45;6.35;;;;;;;;;;4977027;28;20106;-77
2023/11/21 12:27:41;;;;;;;10.05;5.70;;;;;;;;;;4990747;28;20076;-77
2023/11/21 12:30:12;;;;;;;11.27;6.05;;;;;;;;;;5007056;28;20072;-77
2023/11/21 12:32:37;;;;;;;12.80;6.68;;;;;;;;;;4971702;28;20027;-75
2023/11/21 12:35:03;;;;;;;10.20;5.10;;;;;;;;;;4977098;28;20050;-77
2023/11/21 12:37:28;;;;;;;10.50;5.13;;;;;;;;;;4980063;28;20048;-76
2023/11/21 12:39:57;;;;;;;9.30;5.82;;;;;;;;;;4965885;28;20112;-77
2023/11/21 12:42:23;;;;;;;8.95;4.57;;;;;;;;;;4973084;28;20109;-77
2023/11/21 12:44:48;;;;;;;11.88;5.97;;;;;;;;;;4967733;28;20474;-76
2023/11/21 12:47:16;;;;;;;10.38;5.10;;;;;;;;;;4974012;28;20031;-77
2023/11/21 12:49:44;;;;;;;10.75;4.80;;;;;;;;;;4975848;28;20050;-76
2023/11/21 12:52:09;;;;;;;9.85;4.82;;;;;;;;;;4983369;28;20028;-77
2023/11/21 12:54:35;;;;;;;10.18;5.53;;;;;;;;;;4965338;28;20096;-76
2023/11/21 12:57:01;;;;;;;15.85;6.90;;;;;;;;;;4966627;28;20506;-76
2023/11/21 12:59:26;;;;;;;11.65;6.20;;;;;;;;;;4970013;28;20959;-77
2023/11/21 13:01:56;;;;;;;9.77;5.18;;;;;;;;;;4971171;28;20110;-76
2023/11/21 13:04:28;;;;;;;10.13;5.13;;;;;;;;;;4965234;28;20035;-77
2023/11/21 13:06:55;;;;;;;11.43;5.68;;;;;;;;;;4960660;28;20045;-77
2023/11/21 13:09:21;;;;;;;10.95;6.13;;;;;;;;;;4976610;28;20091;-76
2023/11/21 13:11:46;;;;;;;11.02;6.03;;;;;;;;;;4977772;28;20023;-75
2023/11/21 13:14:12;;;;;;;10.27;5.00;;;;;;;;;;4966749;28;20054;-76
2023/11/21 13:16:39;;;;;;;11.20;5.53;;;;;;;;;;4969615;28;20045;-76
2023/11/21 13:19:04;;;;;;;10.45;4.93;;;;;;;;;;4981080;28;20067;-77
2023/11/21 13:21:29;;;;;;;8.07;4.50;;;;;;;;;;4973463;28;20116;-76
2023/11/21 13:23:55;;;;;;;8.18;4.25;;;;;;;;;;4966049;28;20525;-77
2023/11/21 13:26:23;;;;;;;10.20;3.67;;;;;;;;;;4974570;28;20031;-77
2023/11/21 13:28:48;;;;;;;10.68;4.25;;;;;;;;;;4984247;28;20026;-77
2023/11/21 13:31:26;;;;;;;5.85;2.78;;;;;;;;;;4982007;28;20087;-76
2023/11/21 13:33:55;;;;;;;7.18;3.78;;;;;;;;;;4966329;28;20432;-76
2023/11/21 13:36:22;;;;;;;7.80;4.03;;;;;;;;;;4982226;28;20038;-77
2023/11/21 13:38:52;;;;;;;7.80;3.78;;;;;;;;;;4999133;28;20031;-77
2023/11/21 13:41:18;;;;;;;8.93;3.45;;;;;;;;;;4963071;28;20035;-76
2023/11/21 13:43:47;;;;;;;7.07;3.80;;;;;;;;;;4968402;28;20035;-76
2023/11/21 13:46:13;;;;;;;5.47;3.17;;;;;;;;;;4966000;28;20076;-76
2023/11/21 13:48:42;;;;;;;7.15;3.22;;;;;;;;;;4976030;28;20534;-76
2023/11/21 13:51:16;;;;;;;5.72;3.20;;;;;;;;;;4968293;28;20027;-76
2023/11/21 13:53:42;;;;;;;7.03;3.40;;;;;;;;;;4965517;28;20058;-77
2023/11/21 13:56:08;;;;;;;6.38;3.03;;;;;;;;;;4969826;28;20064;-77
2023/11/21 13:58:46;;;;;;;8.63;3.03;;;;;;;;;;4982437;28;20039;-76
2023/11/21 14:04:01;;;;;;;6.43;2.90;;;;;;;;;;4963136;28;20026;-77
2023/11/21 14:06:34;;;;;;;5.63;3.22;;;;;;;;;;4968566;28;20065;-77
2023/11/21 14:09:04;;;;;;;6.07;2.75;;;;;;;;;;4992585;28;20447;-75
2023/11/21 14:11:30;;;;;;;5.60;3.13;;;;;;;;;;4966998;28;20027;-76
2023/11/21 14:13:55;;;;;;;4.93;2.65;;;;;;;;;;4963906;28;20403;-75
2023/11/21 14:16:21;;;;;;;6.45;2.67;;;;;;;;;;4963955;28;20031;-77
2023/11/21 14:18:58;;;;;;;6.68;3.22;;;;;;;;;;4977665;28;20054;-77
2023/11/21 14:21:23;;;;;;;4.53;2.60;;;;;;;;;;4964799;28;20027;-76
2023/11/21 14:23:49;;;;;;;5.03;3.00;;;;;;;;;;4974284;28;20030;-77
2023/11/21 14:26:16;;;;;;;5.53;3.00;;;;;;;;;;4964324;28;20031;-77
2023/11/21 14:28:41;;;;;;;5.38;2.60;;;;;;;;;;4973788;28;20097;-77
2023/11/21 14:31:07;;;;;;;4.75;2.70;;;;;;;;;;4967819;28;20504;-77
2023/11/21 14:33:33;;;;;;;4.50;2.58;;;;;;;;;;4968879;28;20384;-77
2023/11/21 14:35:58;;;;;;;5.18;2.42;;;;;;;;;;4969012;28;20102;-77
2023/11/21 14:38:24;;;;;;;4.75;2.33;;;;;;;;;;4979244;28;20041;-75